Norway Center, South Dakota
Current Conditions -  °F | °C
As of 12:35 AM on Wednesday 26 Nov 2014 (Local Time) from KORC Reporting Station
Light Snow Light Snow  
Wind Chill:   Ceiling: 400
Heat Index:   Visibility: 1mi
Dew Point: -1°   Wind: 3mph
Humidity: 93%   Direction: 150°SSE
Pressure: 29.82"   Gusts: NA
Location:  43.1282°N, 96.5674°W
Report Text: KORC 260635Z AUTO 15003KT 1SM -SN OVC004 00/M01 A2982 RMK AO2
Loading
Personal Weather Stations






























Interactive Weather Map New forecast layout! Learn more

10-Day Weather Forecast

Advertisements
Track Severe Weather on mobile